sensor_id;sensor_type;location;lat;lon;timestamp;temperature;humidity
37088;DHT22;23002;52.676;6.432;2023-04-06T00:01:12;4.40;99.90
37088;DHT22;23002;52.676;6.432;2023-04-06T00:03:39;4.50;99.90
37088;DHT22;23002;52.676;6.432;2023-04-06T00:06:06;4.50;99.90
37088;DHT22;23002;52.676;6.432;2023-04-06T00:08:32;4.40;99.90
37088;DHT22;23002;52.676;6.432;2023-04-06T00:10:59;4.30;99.90
37088;DHT22;23002;52.676;6.432;2023-04-06T00:13:26;4.20;99.90
37088;DHT22;23002;52.676;6.432;2023-04-06T00:15:52;4.10;99.90
37088;DHT22;23002;52.676;6.432;2023-04-06T00:18:19;4.10;99.90
37088;DHT22;23002;52.676;6.432;2023-04-06T00:20:46;4.10;99.90
37088;DHT22;23002;52.676;6.432;2023-04-06T00:23:12;4.20;99.90
37088;DHT22;23002;52.676;6.432;2023-04-06T00:25:39;4.20;99.90
37088;DHT22;23002;52.676;6.432;2023-04-06T00:28:05;4.20;99.90
37088;DHT22;23002;52.676;6.432;2023-04-06T00:30:32;4.10;99.90
37088;DHT22;23002;52.676;6.432;2023-04-06T00:32:58;4.00;99.90
37088;DHT22;23002;52.676;6.432;2023-04-06T00:35:25;4.00;99.90
37088;DHT22;23002;52.676;6.432;2023-04-06T00:37:52;4.00;99.90
37088;DHT22;23002;52.676;6.432;2023-04-06T00:40:18;4.00;99.90
37088;DHT22;23002;52.676;6.432;2023-04-06T00:42:45;4.00;99.90
37088;DHT22;23002;52.676;6.432;2023-04-06T00:45:12;4.00;99.90
37088;DHT22;23002;52.676;6.432;2023-04-06T00:47:38;3.90;99.90
37088;DHT22;23002;52.676;6.432;2023-04-06T00:50:05;3.90;99.90
37088;DHT22;23002;52.676;6.432;2023-04-06T00:52:33;3.90;99.90
37088;DHT22;23002;52.676;6.432;2023-04-06T00:54:59;3.80;99.90
37088;DHT22;23002;52.676;6.432;2023-04-06T00:57:26;3.80;99.90
37088;DHT22;23002;52.676;6.432;2023-04-06T00:59:53;3.80;99.90
37088;DHT22;23002;52.676;6.432;2023-04-06T01:02:19;3.80;99.90
37088;DHT22;23002;52.676;6.432;2023-04-06T01:04:46;3.80;99.90
37088;DHT22;23002;52.676;6.432;2023-04-06T01:07:13;3.70;99.90
37088;DHT22;23002;52.676;6.432;2023-04-06T01:09:39;3.80;99.90
37088;DHT22;23002;52.676;6.432;2023-04-06T01:12:08;3.70;99.90
37088;DHT22;23002;52.676;6.432;2023-04-06T01:14:37;3.60;99.90
37088;DHT22;23002;52.676;6.432;2023-04-06T01:17:04;3.60;99.90
37088;DHT22;23002;52.676;6.432;2023-04-06T01:19:30;3.60;99.90
37088;DHT22;23002;52.676;6.432;2023-04-06T01:21:57;3.70;99.90
37088;DHT22;23002;52.676;6.432;2023-04-06T01:24:24;3.60;99.90
37088;DHT22;23002;52.676;6.432;2023-04-06T01:26:50;3.60;99.90
37088;DHT22;23002;52.676;6.432;2023-04-06T01:29:17;3.60;99.90
37088;DHT22;23002;52.676;6.432;2023-04-06T01:31:43;3.60;99.90
37088;DHT22;23002;52.676;6.432;2023-04-06T01:34:10;3.60;99.90
37088;DHT22;23002;52.676;6.432;2023-04-06T01:36:37;3.60;99.90
37088;DHT22;23002;52.676;6.432;2023-04-06T01:39:03;3.60;99.90
37088;DHT22;23002;52.676;6.432;2023-04-06T01:41:30;3.50;99.90
37088;DHT22;23002;52.676;6.432;2023-04-06T01:43:57;3.50;99.90
37088;DHT22;23002;52.676;6.432;2023-04-06T01:46:23;3.50;99.90
37088;DHT22;23002;52.676;6.432;2023-04-06T01:48:50;3.50;99.90
37088;DHT22;23002;52.676;6.432;2023-04-06T01:51:17;3.50;99.90
37088;DHT22;23002;52.676;6.432;2023-04-06T01:53:43;3.50;99.90
37088;DHT22;23002;52.676;6.432;2023-04-06T01:56:10;3.50;99.90
37088;DHT22;23002;52.676;6.432;2023-04-06T01:58:36;3.40;99.90
37088;DHT22;23002;52.676;6.432;2023-04-06T02:01:03;3.40;99.90
37088;DHT22;23002;52.676;6.432;2023-04-06T02:03:30;3.30;99.90
37088;DHT22;23002;52.676;6.432;2023-04-06T02:05:57;3.30;99.90
37088;DHT22;23002;52.676;6.432;2023-04-06T02:08:24;3.30;99.90
37088;DHT22;23002;52.676;6.432;2023-04-06T02:10:50;3.20;99.90
37088;DHT22;23002;52.676;6.432;2023-04-06T02:13:17;3.20;99.90
37088;DHT22;23002;52.676;6.432;2023-04-06T02:15:44;3.10;99.90
37088;DHT22;23002;52.676;6.432;2023-04-06T02:18:10;3.10;99.90
37088;DHT22;23002;52.676;6.432;2023-04-06T02:20:37;3.20;99.90
37088;DHT22;23002;52.676;6.432;2023-04-06T02:23:04;3.20;99.90
37088;DHT22;23002;52.676;6.432;2023-04-06T02:25:30;3.20;99.90
37088;DHT22;23002;52.676;6.432;2023-04-06T02:27:57;3.20;99.90
37088;DHT22;23002;52.676;6.432;2023-04-06T02:30:23;3.10;99.90
37088;DHT22;23002;52.676;6.432;2023-04-06T02:32:50;3.10;99.90
37088;DHT22;23002;52.676;6.432;2023-04-06T02:35:17;3.10;99.90
37088;DHT22;23002;52.676;6.432;2023-04-06T02:37:43;3.10;99.90
37088;DHT22;23002;52.676;6.432;2023-04-06T02:40:10;3.10;99.90
37088;DHT22;23002;52.676;6.432;2023-04-06T02:42:36;3.20;99.90
37088;DHT22;23002;52.676;6.432;2023-04-06T02:45:03;3.00;99.90
37088;DHT22;23002;52.676;6.432;2023-04-06T02:47:30;2.90;99.90
37088;DHT22;23002;52.676;6.432;2023-04-06T02:49:56;2.90;99.90
37088;DHT22;23002;52.676;6.432;2023-04-06T02:52:23;3.00;99.90
37088;DHT22;23002;52.676;6.432;2023-04-06T02:54:49;3.00;99.90
37088;DHT22;23002;52.676;6.432;2023-04-06T02:57:17;3.10;99.90
37088;DHT22;23002;52.676;6.432;2023-04-06T02:59:44;3.00;99.90
37088;DHT22;23002;52.676;6.432;2023-04-06T03:02:10;3.00;99.90
37088;DHT22;23002;52.676;6.432;2023-04-06T03:04:37;2.90;99.90
37088;DHT22;23002;52.676;6.432;2023-04-06T03:07:03;3.10;99.90
37088;DHT22;23002;52.676;6.432;2023-04-06T03:09:30;3.10;99.90
37088;DHT22;23002;52.676;6.432;2023-04-06T03:11:56;3.00;99.90
37088;DHT22;23002;52.676;6.432;2023-04-06T03:14:23;3.00;99.90
37088;DHT22;23002;52.676;6.432;2023-04-06T03:16:50;3.00;99.90
37088;DHT22;23002;52.676;6.432;2023-04-06T03:19:17;2.90;99.90
37088;DHT22;23002;52.676;6.432;2023-04-06T03:21:43;3.00;99.90
37088;DHT22;23002;52.676;6.432;2023-04-06T03:24:10;3.00;99.90
37088;DHT22;23002;52.676;6.432;2023-04-06T03:26:37;2.90;99.90
37088;DHT22;23002;52.676;6.432;2023-04-06T03:29:03;2.90;99.90
37088;DHT22;23002;52.676;6.432;2023-04-06T03:31:30;2.90;99.90
37088;DHT22;23002;52.676;6.432;2023-04-06T03:33:57;2.80;99.90
37088;DHT22;23002;52.676;6.432;2023-04-06T03:36:23;2.80;99.90
37088;DHT22;23002;52.676;6.432;2023-04-06T03:38:50;2.80;99.90
37088;DHT22;23002;52.676;6.432;2023-04-06T03:41:16;2.80;99.90
37088;DHT22;23002;52.676;6.432;2023-04-06T03:43:43;2.80;99.90
37088;DHT22;23002;52.676;6.432;2023-04-06T03:46:10;2.70;99.90
37088;DHT22;23002;52.676;6.432;2023-04-06T03:48:36;2.60;99.90
37088;DHT22;23002;52.676;6.432;2023-04-06T03:51:03;2.60;99.90
37088;DHT22;23002;52.676;6.432;2023-04-06T03:53:30;2.60;99.90
37088;DHT22;23002;52.676;6.432;2023-04-06T03:55:56;2.60;99.90
37088;DHT22;23002;52.676;6.432;2023-04-06T03:58:23;2.60;99.90
37088;DHT22;23002;52.676;6.432;2023-04-06T04:00:49;2.70;99.90
37088;DHT22;23002;52.676;6.432;2023-04-06T04:03:16;2.70;99.90
37088;DHT22;23002;52.676;6.432;2023-04-06T04:05:43;2.60;99.90
37088;DHT22;23002;52.676;6.432;2023-04-06T04:08:09;2.50;99.90
37088;DHT22;23002;52.676;6.432;2023-04-06T04:10:36;2.60;99.90
37088;DHT22;23002;52.676;6.432;2023-04-06T04:13:03;2.50;99.90
37088;DHT22;23002;52.676;6.432;2023-04-06T04:15:30;2.50;99.90
37088;DHT22;23002;52.676;6.432;2023-04-06T04:17:56;2.40;99.90
37088;DHT22;23002;52.676;6.432;2023-04-06T04:20:23;2.30;99.90
37088;DHT22;23002;52.676;6.432;2023-04-06T04:22:50;2.30;99.90
37088;DHT22;23002;52.676;6.432;2023-04-06T04:25:16;2.40;99.90
37088;DHT22;23002;52.676;6.432;2023-04-06T04:27:43;2.40;99.90
37088;DHT22;23002;52.676;6.432;2023-04-06T04:30:09;2.50;99.90
37088;DHT22;23002;52.676;6.432;2023-04-06T04:32:36;2.30;99.90
37088;DHT22;23002;52.676;6.432;2023-04-06T04:35:03;2.30;99.90
37088;DHT22;23002;52.676;6.432;2023-04-06T04:37:30;2.50;99.90
37088;DHT22;23002;52.676;6.432;2023-04-06T04:39:56;2.60;99.90
37088;DHT22;23002;52.676;6.432;2023-04-06T04:42:23;2.50;99.90
37088;DHT22;23002;52.676;6.432;2023-04-06T04:44:50;2.40;99.90
37088;DHT22;23002;52.676;6.432;2023-04-06T04:47:16;2.50;99.90
37088;DHT22;23002;52.676;6.432;2023-04-06T04:49:43;2.60;99.90
37088;DHT22;23002;52.676;6.432;2023-04-06T04:52:09;2.60;99.90
37088;DHT22;23002;52.676;6.432;2023-04-06T04:54:36;2.70;99.90
37088;DHT22;23002;52.676;6.432;2023-04-06T04:57:02;2.80;99.90
37088;DHT22;23002;52.676;6.432;2023-04-06T04:59:29;2.70;99.90
37088;DHT22;23002;52.676;6.432;2023-04-06T05:01:56;2.80;99.90
37088;DHT22;23002;52.676;6.432;2023-04-06T05:04:22;2.80;99.90
37088;DHT22;23002;52.676;6.432;2023-04-06T05:06:50;2.90;99.90
37088;DHT22;23002;52.676;6.432;2023-04-06T05:09:16;2.80;99.90
37088;DHT22;23002;52.676;6.432;2023-04-06T05:11:44;2.80;99.90
37088;DHT22;23002;52.676;6.432;2023-04-06T05:14:10;2.80;99.90
37088;DHT22;23002;52.676;6.432;2023-04-06T05:16:37;2.70;99.90
37088;DHT22;23002;52.676;6.432;2023-04-06T05:19:03;2.80;99.90
37088;DHT22;23002;52.676;6.432;2023-04-06T05:21:30;2.80;99.90
37088;DHT22;23002;52.676;6.432;2023-04-06T05:23:58;2.80;99.90
37088;DHT22;23002;52.676;6.432;2023-04-06T05:26:24;2.80;99.90
37088;DHT22;23002;52.676;6.432;2023-04-06T05:28:51;3.00;99.90
37088;DHT22;23002;52.676;6.432;2023-04-06T05:31:18;3.20;99.90
37088;DHT22;23002;52.676;6.432;2023-04-06T05:33:44;3.30;99.90
37088;DHT22;23002;52.676;6.432;2023-04-06T05:36:11;3.20;99.90
37088;DHT22;23002;52.676;6.432;2023-04-06T05:38:40;3.40;99.90
37088;DHT22;23002;52.676;6.432;2023-04-06T05:41:07;3.60;99.90
37088;DHT22;23002;52.676;6.432;2023-04-06T05:43:33;3.60;99.90
37088;DHT22;23002;52.676;6.432;2023-04-06T05:46:00;3.70;99.90
37088;DHT22;23002;52.676;6.432;2023-04-06T05:48:27;3.80;99.90
37088;DHT22;23002;52.676;6.432;2023-04-06T05:50:54;4.00;99.90
37088;DHT22;23002;52.676;6.432;2023-04-06T05:53:21;4.00;99.90
37088;DHT22;23002;52.676;6.432;2023-04-06T05:55:47;4.30;99.90
37088;DHT22;23002;52.676;6.432;2023-04-06T05:58:14;4.50;99.90
37088;DHT22;23002;52.676;6.432;2023-04-06T06:00:41;4.50;99.90
37088;DHT22;23002;52.676;6.432;2023-04-06T06:03:09;4.70;99.90
37088;DHT22;23002;52.676;6.432;2023-04-06T06:05:36;4.60;99.90
37088;DHT22;23002;52.676;6.432;2023-04-06T06:08:02;4.60;99.90
37088;DHT22;23002;52.676;6.432;2023-04-06T06:10:29;4.60;99.90
37088;DHT22;23002;52.676;6.432;2023-04-06T06:12:55;4.70;99.90
37088;DHT22;23002;52.676;6.432;2023-04-06T06:15:22;4.70;99.90
37088;DHT22;23002;52.676;6.432;2023-04-06T06:17:48;4.80;99.90
37088;DHT22;23002;52.676;6.432;2023-04-06T06:20:15;5.10;99.90
37088;DHT22;23002;52.676;6.432;2023-04-06T06:22:42;5.30;99.90
37088;DHT22;23002;52.676;6.432;2023-04-06T06:25:09;5.40;99.90
37088;DHT22;23002;52.676;6.432;2023-04-06T06:27:35;5.30;99.90
37088;DHT22;23002;52.676;6.432;2023-04-06T06:30:02;5.40;99.90
37088;DHT22;23002;52.676;6.432;2023-04-06T06:32:29;5.60;99.90
37088;DHT22;23002;52.676;6.432;2023-04-06T06:34:55;5.80;99.90
37088;DHT22;23002;52.676;6.432;2023-04-06T06:37:22;5.90;99.90
37088;DHT22;23002;52.676;6.432;2023-04-06T06:39:48;5.80;99.90
37088;DHT22;23002;52.676;6.432;2023-04-06T06:42:15;5.60;99.90
37088;DHT22;23002;52.676;6.432;2023-04-06T06:44:42;5.90;99.90
37088;DHT22;23002;52.676;6.432;2023-04-06T06:47:08;5.70;99.90
37088;DHT22;23002;52.676;6.432;2023-04-06T06:49:35;5.60;99.90
37088;DHT22;23002;52.676;6.432;2023-04-06T06:52:02;5.80;99.90
37088;DHT22;23002;52.676;6.432;2023-04-06T11:22:27;18.50;86.10
37088;DHT22;23002;52.676;6.432;2023-04-06T11:25:04;18.30;88.30
37088;DHT22;23002;52.676;6.432;2023-04-06T11:27:31;17.50;87.40
37088;DHT22;23002;52.676;6.432;2023-04-06T11:29:59;17.40;90.00
37088;DHT22;23002;52.676;6.432;2023-04-06T11:32:25;18.20;90.50
37088;DHT22;23002;52.676;6.432;2023-04-06T11:34:52;19.40;90.50
37088;DHT22;23002;52.676;6.432;2023-04-06T11:37:19;19.70;88.40
37088;DHT22;23002;52.676;6.432;2023-04-06T11:39:50;19.70;85.70
37088;DHT22;23002;52.676;6.432;2023-04-06T11:42:23;20.10;86.30
37088;DHT22;23002;52.676;6.432;2023-04-06T11:44:53;20.10;87.10
37088;DHT22;23002;52.676;6.432;2023-04-06T11:47:20;20.40;86.80
37088;DHT22;23002;52.676;6.432;2023-04-06T11:49:53;20.30;85.00
37088;DHT22;23002;52.676;6.432;2023-04-06T11:52:22;19.60;85.90
37088;DHT22;23002;52.676;6.432;2023-04-06T11:54:49;19.20;87.60
37088;DHT22;23002;52.676;6.432;2023-04-06T11:57:16;19.10;86.40
37088;DHT22;23002;52.676;6.432;2023-04-06T11:59:43;18.80;87.00
37088;DHT22;23002;52.676;6.432;2023-04-06T12:02:09;18.40;87.30
37088;DHT22;23002;52.676;6.432;2023-04-06T12:04:37;18.40;87.30
37088;DHT22;23002;52.676;6.432;2023-04-06T12:07:04;19.00;88.00
37088;DHT22;23002;52.676;6.432;2023-04-06T12:09:30;19.40;88.50
37088;DHT22;23002;52.676;6.432;2023-04-06T12:11:57;19.40;88.00
37088;DHT22;23002;52.676;6.432;2023-04-06T12:14:24;19.40;88.80
37088;DHT22;23002;52.676;6.432;2023-04-06T12:16:51;19.10;88.60
37088;DHT22;23002;52.676;6.432;2023-04-06T12:19:17;18.80;89.20
37088;DHT22;23002;52.676;6.432;2023-04-06T12:21:44;18.60;89.20
37088;DHT22;23002;52.676;6.432;2023-04-06T12:24:11;18.50;89.20
37088;DHT22;23002;52.676;6.432;2023-04-06T12:26:37;18.50;90.70
37088;DHT22;23002;52.676;6.432;2023-04-06T12:29:04;18.20;90.10
37088;DHT22;23002;52.676;6.432;2023-04-06T12:31:34;17.80;90.30
37088;DHT22;23002;52.676;6.432;2023-04-06T12:34:03;17.40;90.40
37088;DHT22;23002;52.676;6.432;2023-04-06T12:36:30;16.90;91.10
37088;DHT22;23002;52.676;6.432;2023-04-06T12:38:57;17.10;91.70
37088;DHT22;23002;52.676;6.432;2023-04-06T12:41:24;17.30;91.30
37088;DHT22;23002;52.676;6.432;2023-04-06T12:43:51;17.10;90.90
37088;DHT22;23002;52.676;6.432;2023-04-06T12:46:18;17.10;90.90
37088;DHT22;23002;52.676;6.432;2023-04-06T12:48:45;16.80;91.90
37088;DHT22;23002;52.676;6.432;2023-04-06T12:51:11;17.20;92.00
37088;DHT22;23002;52.676;6.432;2023-04-06T12:53:38;17.60;91.40
37088;DHT22;23002;52.676;6.432;2023-04-06T12:56:15;17.70;91.50
37088;DHT22;23002;52.676;6.432;2023-04-06T12:58:42;17.80;91.50
37088;DHT22;23002;52.676;6.432;2023-04-06T13:01:09;17.70;92.40
37088;DHT22;23002;52.676;6.432;2023-04-06T13:03:36;17.90;92.50
37088;DHT22;23002;52.676;6.432;2023-04-06T13:06:03;17.90;93.10
37088;DHT22;23002;52.676;6.432;2023-04-06T13:08:30;18.00;92.90
37088;DHT22;23002;52.676;6.432;2023-04-06T13:10:56;18.10;93.00
37088;DHT22;23002;52.676;6.432;2023-04-06T13:13:24;17.20;92.70
37088;DHT22;23002;52.676;6.432;2023-04-06T13:15:51;17.00;92.80
37088;DHT22;23002;52.676;6.432;2023-04-06T13:18:18;16.70;92.90
37088;DHT22;23002;52.676;6.432;2023-04-06T13:20:46;16.20;93.50
37088;DHT22;23002;52.676;6.432;2023-04-06T13:23:12;16.10;93.80
37088;DHT22;23002;52.676;6.432;2023-04-06T13:25:39;16.00;93.80
37088;DHT22;23002;52.676;6.432;2023-04-06T13:28:07;16.20;94.20
37088;DHT22;23002;52.676;6.432;2023-04-06T13:30:34;16.00;94.00
37088;DHT22;23002;52.676;6.432;2023-04-06T13:33:00;15.90;94.90
37088;DHT22;23002;52.676;6.432;2023-04-06T13:35:27;15.50;95.50
37088;DHT22;23002;52.676;6.432;2023-04-06T13:37:54;15.20;95.80
37088;DHT22;23002;52.676;6.432;2023-04-06T13:40:20;15.20;95.70
37088;DHT22;23002;52.676;6.432;2023-04-06T13:42:47;15.10;95.40
37088;DHT22;23002;52.676;6.432;2023-04-06T13:45:13;14.50;96.10
37088;DHT22;23002;52.676;6.432;2023-04-06T13:47:40;14.00;96.60
37088;DHT22;23002;52.676;6.432;2023-04-06T13:50:07;13.70;97.00
37088;DHT22;23002;52.676;6.432;2023-04-06T13:52:34;13.50;97.00
37088;DHT22;23002;52.676;6.432;2023-04-06T13:55:02;13.40;97.30
37088;DHT22;23002;52.676;6.432;2023-04-06T13:57:29;13.50;98.20
37088;DHT22;23002;52.676;6.432;2023-04-06T13:59:56;13.50;98.80
37088;DHT22;23002;52.676;6.432;2023-04-06T14:02:23;13.60;98.90
37088;DHT22;23002;52.676;6.432;2023-04-06T14:04:53;13.70;99.10
37088;DHT22;23002;52.676;6.432;2023-04-06T14:07:20;13.70;99.60
37088;DHT22;23002;52.676;6.432;2023-04-06T14:09:50;13.80;99.30
37088;DHT22;23002;52.676;6.432;2023-04-06T14:12:16;14.10;99.70
37088;DHT22;23002;52.676;6.432;2023-04-06T14:14:43;14.30;99.90
37088;DHT22;23002;52.676;6.432;2023-04-06T14:17:09;14.60;99.90
37088;DHT22;23002;52.676;6.432;2023-04-06T14:19:36;14.60;99.90
37088;DHT22;23002;52.676;6.432;2023-04-06T14:22:03;14.50;99.90
37088;DHT22;23002;52.676;6.432;2023-04-06T14:24:30;14.50;99.90
37088;DHT22;23002;52.676;6.432;2023-04-06T14:26:57;14.20;99.90
37088;DHT22;23002;52.676;6.432;2023-04-06T14:29:24;14.00;99.90
37088;DHT22;23002;52.676;6.432;2023-04-06T14:31:50;13.80;99.90
37088;DHT22;23002;52.676;6.432;2023-04-06T14:34:17;13.80;99.90
37088;DHT22;23002;52.676;6.432;2023-04-06T14:36:43;13.70;99.90
37088;DHT22;23002;52.676;6.432;2023-04-06T14:39:10;13.50;99.90
37088;DHT22;23002;52.676;6.432;2023-04-06T14:41:36;13.20;99.90
37088;DHT22;23002;52.676;6.432;2023-04-06T14:44:03;13.20;99.90
37088;DHT22;23002;52.676;6.432;2023-04-06T14:46:31;13.10;99.90
37088;DHT22;23002;52.676;6.432;2023-04-06T14:48:57;13.10;99.90
37088;DHT22;23002;52.676;6.432;2023-04-06T14:51:25;13.30;99.90
37088;DHT22;23002;52.676;6.432;2023-04-06T14:53:53;13.30;99.90
37088;DHT22;23002;52.676;6.432;2023-04-06T14:56:21;13.00;99.90
37088;DHT22;23002;52.676;6.432;2023-04-06T14:58:48;13.00;99.90
37088;DHT22;23002;52.676;6.432;2023-04-06T15:01:15;12.80;99.90
37088;DHT22;23002;52.676;6.432;2023-04-06T15:03:42;12.90;99.90
37088;DHT22;23002;52.676;6.432;2023-04-06T15:06:12;12.90;99.90
37088;DHT22;23002;52.676;6.432;2023-04-06T15:08:44;12.80;99.90
37088;DHT22;23002;52.676;6.432;2023-04-06T15:11:11;12.70;99.90
37088;DHT22;23002;52.676;6.432;2023-04-06T15:13:38;12.60;99.90
37088;DHT22;23002;52.676;6.432;2023-04-06T15:16:05;12.40;99.90
37088;DHT22;23002;52.676;6.432;2023-04-06T15:18:33;12.20;99.90
37088;DHT22;23002;52.676;6.432;2023-04-06T15:20:59;12.00;99.90
37088;DHT22;23002;52.676;6.432;2023-04-06T15:23:26;11.90;99.90
37088;DHT22;23002;52.676;6.432;2023-04-06T15:25:56;11.70;99.90
37088;DHT22;23002;52.676;6.432;2023-04-06T15:28:23;11.50;99.90
37088;DHT22;23002;52.676;6.432;2023-04-06T15:30:50;11.30;99.90
37088;DHT22;23002;52.676;6.432;2023-04-06T15:33:17;11.20;99.90
37088;DHT22;23002;52.676;6.432;2023-04-06T15:35:45;11.10;99.90
37088;DHT22;23002;52.676;6.432;2023-04-06T15:38:12;11.20;99.90
37088;DHT22;23002;52.676;6.432;2023-04-06T15:40:45;11.20;99.90
37088;DHT22;23002;52.676;6.432;2023-04-06T15:43:12;11.10;99.90
37088;DHT22;23002;52.676;6.432;2023-04-06T15:45:39;11.00;99.90
37088;DHT22;23002;52.676;6.432;2023-04-06T15:48:07;10.90;99.90
37088;DHT22;23002;52.676;6.432;2023-04-06T15:50:34;10.70;99.90
37088;DHT22;23002;52.676;6.432;2023-04-06T15:53:01;10.50;99.90
37088;DHT22;23002;52.676;6.432;2023-04-06T15:55:27;10.30;99.90
37088;DHT22;23002;52.676;6.432;2023-04-06T15:57:54;10.30;99.90
37088;DHT22;23002;52.676;6.432;2023-04-06T16:00:20;10.30;99.90
37088;DHT22;23002;52.676;6.432;2023-04-06T16:02:48;10.20;99.90
37088;DHT22;23002;52.676;6.432;2023-04-06T16:05:14;10.00;99.90
37088;DHT22;23002;52.676;6.432;2023-04-06T16:07:41;10.00;99.90
37088;DHT22;23002;52.676;6.432;2023-04-06T16:10:08;9.90;99.90
37088;DHT22;23002;52.676;6.432;2023-04-06T16:12:35;9.90;99.90
37088;DHT22;23002;52.676;6.432;2023-04-06T16:15:02;10.00;99.90
37088;DHT22;23002;52.676;6.432;2023-04-06T16:17:28;10.10;99.90
37088;DHT22;23002;52.676;6.432;2023-04-06T16:19:55;9.80;99.90
37088;DHT22;23002;52.676;6.432;2023-04-06T16:22:22;9.80;99.90
37088;DHT22;23002;52.676;6.432;2023-04-06T16:24:48;9.80;99.90
37088;DHT22;23002;52.676;6.432;2023-04-06T16:27:15;9.80;99.90
37088;DHT22;23002;52.676;6.432;2023-04-06T16:29:41;9.70;99.90
37088;DHT22;23002;52.676;6.432;2023-04-06T16:32:08;9.70;99.90
37088;DHT22;23002;52.676;6.432;2023-04-06T16:34:37;9.80;99.90
37088;DHT22;23002;52.676;6.432;2023-04-06T16:37:04;9.80;99.90
37088;DHT22;23002;52.676;6.432;2023-04-06T16:39:30;9.90;99.90
37088;DHT22;23002;52.676;6.432;2023-04-06T16:41:57;9.60;99.90
37088;DHT22;23002;52.676;6.432;2023-04-06T16:44:25;9.40;99.90
37088;DHT22;23002;52.676;6.432;2023-04-06T16:46:52;9.30;99.90
37088;DHT22;23002;52.676;6.432;2023-04-06T16:49:19;9.30;99.90
37088;DHT22;23002;52.676;6.432;2023-04-06T16:51:46;9.30;99.90
37088;DHT22;23002;52.676;6.432;2023-04-06T16:54:15;9.40;99.90
37088;DHT22;23002;52.676;6.432;2023-04-06T16:56:41;9.30;99.90
37088;DHT22;23002;52.676;6.432;2023-04-06T16:59:08;9.40;99.90
37088;DHT22;23002;52.676;6.432;2023-04-06T17:01:35;9.50;99.90
37088;DHT22;23002;52.676;6.432;2023-04-06T17:04:02;9.30;99.90
37088;DHT22;23002;52.676;6.432;2023-04-06T17:06:29;9.30;99.90
37088;DHT22;23002;52.676;6.432;2023-04-06T17:08:56;9.30;99.90
37088;DHT22;23002;52.676;6.432;2023-04-06T17:11:25;9.40;99.90
37088;DHT22;23002;52.676;6.432;2023-04-06T17:14:01;9.20;99.90
37088;DHT22;23002;52.676;6.432;2023-04-06T17:16:28;8.90;99.90
37088;DHT22;23002;52.676;6.432;2023-04-06T17:18:55;9.00;99.90
37088;DHT22;23002;52.676;6.432;2023-04-06T17:21:22;8.90;99.90
37088;DHT22;23002;52.676;6.432;2023-04-06T17:23:49;9.00;99.90
37088;DHT22;23002;52.676;6.432;2023-04-06T17:26:15;9.10;99.90
37088;DHT22;23002;52.676;6.432;2023-04-06T17:28:42;9.10;99.90
37088;DHT22;23002;52.676;6.432;2023-04-06T17:31:09;9.20;99.90
37088;DHT22;23002;52.676;6.432;2023-04-06T17:33:39;9.10;99.90
37088;DHT22;23002;52.676;6.432;2023-04-06T17:36:07;9.10;99.90
37088;DHT22;23002;52.676;6.432;2023-04-06T17:38:36;9.20;99.90
37088;DHT22;23002;52.676;6.432;2023-04-06T17:41:03;9.10;99.90
37088;DHT22;23002;52.676;6.432;2023-04-06T17:43:32;9.10;99.90
37088;DHT22;23002;52.676;6.432;2023-04-06T17:45:59;9.10;99.90
37088;DHT22;23002;52.676;6.432;2023-04-06T17:48:26;9.10;99.90
37088;DHT22;23002;52.676;6.432;2023-04-06T17:50:53;9.10;99.90
37088;DHT22;23002;52.676;6.432;2023-04-06T17:53:19;9.00;99.90
37088;DHT22;23002;52.676;6.432;2023-04-06T17:55:46;9.00;99.90
37088;DHT22;23002;52.676;6.432;2023-04-06T17:58:12;9.00;99.90
37088;DHT22;23002;52.676;6.432;2023-04-06T18:00:39;9.10;99.90
37088;DHT22;23002;52.676;6.432;2023-04-06T18:03:06;9.10;99.90
37088;DHT22;23002;52.676;6.432;2023-04-06T18:05:32;8.90;99.90
37088;DHT22;23002;52.676;6.432;2023-04-06T18:07:59;8.80;99.90
37088;DHT22;23002;52.676;6.432;2023-04-06T18:10:26;8.90;99.90
37088;DHT22;23002;52.676;6.432;2023-04-06T18:12:53;8.80;99.90
37088;DHT22;23002;52.676;6.432;2023-04-06T18:15:19;8.80;99.90
37088;DHT22;23002;52.676;6.432;2023-04-06T18:17:46;9.10;99.90
37088;DHT22;23002;52.676;6.432;2023-04-06T18:20:15;9.30;99.90
37088;DHT22;23002;52.676;6.432;2023-04-06T18:22:42;9.20;99.90
37088;DHT22;23002;52.676;6.432;2023-04-06T18:25:09;9.30;99.90
37088;DHT22;23002;52.676;6.432;2023-04-06T18:27:36;9.30;99.90
37088;DHT22;23002;52.676;6.432;2023-04-06T18:30:03;9.50;99.90
37088;DHT22;23002;52.676;6.432;2023-04-06T18:32:29;9.40;99.90
37088;DHT22;23002;52.676;6.432;2023-04-06T18:34:57;9.30;99.90
37088;DHT22;23002;52.676;6.432;2023-04-06T18:37:24;9.20;99.90
37088;DHT22;23002;52.676;6.432;2023-04-06T18:39:51;9.10;99.90
37088;DHT22;23002;52.676;6.432;2023-04-06T18:42:19;9.00;99.90
37088;DHT22;23002;52.676;6.432;2023-04-06T18:44:46;9.10;99.90
37088;DHT22;23002;52.676;6.432;2023-04-06T18:47:13;8.90;99.90
37088;DHT22;23002;52.676;6.432;2023-04-06T18:49:40;8.90;99.90
37088;DHT22;23002;52.676;6.432;2023-04-06T18:52:06;8.90;99.90
37088;DHT22;23002;52.676;6.432;2023-04-06T18:54:33;9.10;99.90
37088;DHT22;23002;52.676;6.432;2023-04-06T18:57:00;9.30;99.90
37088;DHT22;23002;52.676;6.432;2023-04-06T18:59:27;9.30;99.90
37088;DHT22;23002;52.676;6.432;2023-04-06T19:01:55;9.30;99.90
37088;DHT22;23002;52.676;6.432;2023-04-06T19:04:22;9.40;99.90
37088;DHT22;23002;52.676;6.432;2023-04-06T19:06:49;9.30;99.90
37088;DHT22;23002;52.676;6.432;2023-04-06T19:09:16;9.20;99.90
37088;DHT22;23002;52.676;6.432;2023-04-06T19:11:43;9.10;99.90
37088;DHT22;23002;52.676;6.432;2023-04-06T19:14:09;8.90;99.90
37088;DHT22;23002;52.676;6.432;2023-04-06T19:16:36;8.90;99.90
37088;DHT22;23002;52.676;6.432;2023-04-06T19:19:06;9.00;99.90
37088;DHT22;23002;52.676;6.432;2023-04-06T19:21:33;9.00;99.90
37088;DHT22;23002;52.676;6.432;2023-04-06T19:24:00;8.80;99.90
37088;DHT22;23002;52.676;6.432;2023-04-06T19:26:27;8.70;99.90
37088;DHT22;23002;52.676;6.432;2023-04-06T19:28:55;8.90;99.90
37088;DHT22;23002;52.676;6.432;2023-04-06T19:31:22;9.00;99.90
37088;DHT22;23002;52.676;6.432;2023-04-06T19:33:49;9.20;99.90
37088;DHT22;23002;52.676;6.432;2023-04-06T19:36:15;9.10;99.90
37088;DHT22;23002;52.676;6.432;2023-04-06T19:38:42;9.30;99.90
37088;DHT22;23002;52.676;6.432;2023-04-06T19:41:09;9.30;99.90
37088;DHT22;23002;52.676;6.432;2023-04-06T19:43:35;9.30;99.90
37088;DHT22;23002;52.676;6.432;2023-04-06T19:46:02;9.20;99.90
37088;DHT22;23002;52.676;6.432;2023-04-06T19:48:30;9.10;99.90
37088;DHT22;23002;52.676;6.432;2023-04-06T19:50:59;9.10;99.90
37088;DHT22;23002;52.676;6.432;2023-04-06T19:53:26;9.10;99.90
37088;DHT22;23002;52.676;6.432;2023-04-06T19:55:52;9.10;99.90
37088;DHT22;23002;52.676;6.432;2023-04-06T19:58:19;9.00;99.90
37088;DHT22;23002;52.676;6.432;2023-04-06T20:00:46;9.00;99.90
37088;DHT22;23002;52.676;6.432;2023-04-06T20:03:13;9.00;99.90
37088;DHT22;23002;52.676;6.432;2023-04-06T20:05:40;9.00;99.90
37088;DHT22;23002;52.676;6.432;2023-04-06T20:08:07;9.10;99.90